KGLD

Renner Field / Goodland Municipal / Airport

Goodland, Kansas, USA
METAR KGLD 191453Z AUTO 35016G22KT 10SM CLR 19/15 A3004 RMK AO2 SLP142 T01890150 50005 $
Observed Flight Rules
Aug-19 @ 14:53 UTC (45 minutes ago) Visual Flight Rules
Wind Visibility Clouds
350° at 16 knots
 Gusting to 22 knots
10 miles
  • Clear skies
Temperatures Readings
Current 19°C / 66°F
Dewpoint 15°C / 59°F
Humidity 78%
Altimeter 30.04" Hg
Pressure 1014.2 hPa
Elevation 1113
METAR KGLD 191453Z AUTO 35016G22KT 10SM CLR 19/15 A3004 RMK AO2 SLP142 T01890150 50005 $
Observed Flight Rules
Aug-19 @ 14:53 UTC
(45 minutes ago)
VFR
Wind Visibility
350° at 16 knots
 Gusting to 22 knots
10 miles
Clouds
  • Clear skies
Temperature Dewpoint
19°C / 66°F 15°C / 59°F
Humidity Altimeter Pressure
78% 30.04" Hg 1014.2 hPa